<?xml version="1.0" encoding="UTF-8"?>
<gpx
  version="1.0"
  creator="GPSBabel - http://www.gpsbabel.org"
  xmlns:xsi="http://www.w3.org/2001/XMLSchema-instance"
  xmlns="http://www.topografix.com/GPX/1/0"
  xsi:schemaLocation="http://www.topografix.com/GPX/1/1 http://www.topografix.com/GPX/1/1/gpx.xsd">
<time>2016-07-09T20:36:33Z</time>
<bounds minlat="40.237613000" minlon="-6.621934000" maxlat="40.267358000" maxlon="-6.596322000"/>
<wpt lat="40.252687000" lon="-6.606947000">
  <ele>867.000000</ele>
  <time>2015-09-25T20:13:53Z</time>
  <name>MIRADOR TECHADO</name>
</wpt>
<wpt lat="40.240834000" lon="-6.603584000">
  <ele>755.000000</ele>
  <time>2015-09-25T20:13:53Z</time>
  <name>CRUZ DE GAGO</name>
</wpt>
<wpt lat="40.258349000" lon="-6.608588000">
  <ele>970.000000</ele>
  <time>2015-09-25T20:13:53Z</time>
  <name>ERMITA SAN BLAS</name>
</wpt>
<wpt lat="40.258420000" lon="-6.608636000">
  <ele>970.000000</ele>
  <time>2015-09-25T20:13:53Z</time>
  <name>FTE</name>
</wpt>
<wpt lat="40.252494000" lon="-6.605440000">
  <ele>853.000000</ele>
  <time>2015-09-25T20:13:53Z</time>
  <name>FTE DE AGUAS BUENAS</name>
</wpt>
<wpt lat="40.262797000" lon="-6.614623000">
  <ele>1067.000000</ele>
  <time>2015-09-25T20:13:53Z</time>
  <name>FTE LAS PILAS</name>
</wpt>
<wpt lat="40.257770000" lon="-6.608686000">
  <ele>968.000000</ele>
  <time>2015-09-25T20:13:53Z</time>
  <name>FTE SAN BLAS</name>
</wpt>
<wpt lat="40.254951000" lon="-6.606929000">
  <ele>887.000000</ele>
  <time>2015-09-25T20:13:53Z</time>
  <name>FTE</name>
</wpt>
<wpt lat="40.244715000" lon="-6.604492000">
  <ele>807.000000</ele>
  <time>2015-09-25T20:13:53Z</time>
  <name>FTE LAS PILAS</name>
</wpt>
<wpt lat="40.256466000" lon="-6.609008000">
  <ele>948.000000</ele>
  <time>2015-09-25T20:13:53Z</time>
  <name>MIRADOR</name>
</wpt>
<wpt lat="40.237613000" lon="-6.596322000">
  <ele>635.000000</ele>
  <time>2015-09-25T20:13:53Z</time>
  <name>OFICINA DE TURISMO</name>
</wpt>
<wpt lat="40.254384000" lon="-6.607225000">
  <ele>876.000000</ele>
  <time>2015-09-25T20:13:53Z</time>
  <name>PTE PIEDRA</name>
</wpt>
<wpt lat="40.267358000" lon="-6.621934000">
  <ele>0.000000</ele>
  <time>2015-09-25T20:13:53Z</time>
  <name>PUERTO DE CASTILLA</name>
</wpt>
<trk>
  <name>PR-CC 185 Puerto Castilla </name>
<trkseg>
<trkpt lat="40.239853000" lon="-6.599089000">
  <ele>685.000000</ele>
  <time>2016-07-09T22:36:33Z</time>
</trkpt>
<trkpt lat="40.240016000" lon="-6.600125000">
  <ele>696.000000</ele>
  <time>2016-07-09T22:37:13Z</time>
</trkpt>
<trkpt lat="40.240881000" lon="-6.601961000">
  <ele>723.000000</ele>
  <time>2016-07-09T22:37:53Z</time>
</trkpt>
<trkpt lat="40.240553000" lon="-6.602589000">
  <ele>717.000000</ele>
  <time>2016-07-09T22:38:33Z</time>
</trkpt>
<trkpt lat="40.240595000" lon="-6.603129000">
  <ele>718.000000</ele>
  <time>2016-07-09T22:39:13Z</time>
</trkpt>
<trkpt lat="40.241192000" lon="-6.604281000">
  <ele>733.000000</ele>
  <time>2016-07-09T22:39:53Z</time>
</trkpt>
<trkpt lat="40.241704000" lon="-6.604857000">
  <ele>747.000000</ele>
  <time>2016-07-09T22:40:33Z</time>
</trkpt>
<trkpt lat="40.242150000" lon="-6.605001000">
  <ele>754.000000</ele>
  <time>2016-07-09T22:41:13Z</time>
</trkpt>
<trkpt lat="40.242703000" lon="-6.604975000">
  <ele>759.000000</ele>
  <time>2016-07-09T22:41:53Z</time>
</trkpt>
<trkpt lat="40.244610000" lon="-6.604357000">
  <ele>801.000000</ele>
  <time>2016-07-09T22:42:33Z</time>
</trkpt>
<trkpt lat="40.244729000" lon="-6.604452000">
  <ele>801.000000</ele>
  <time>2016-07-09T22:43:13Z</time>
</trkpt>
<trkpt lat="40.244852000" lon="-6.605624000">
  <ele>784.000000</ele>
  <time>2016-07-09T22:43:53Z</time>
</trkpt>
<trkpt lat="40.245051000" lon="-6.605882000">
  <ele>788.000000</ele>
  <time>2016-07-09T22:44:33Z</time>
</trkpt>
<trkpt lat="40.245864000" lon="-6.606007000">
  <ele>792.000000</ele>
  <time>2016-07-09T22:45:13Z</time>
</trkpt>
<trkpt lat="40.246322000" lon="-6.605813000">
  <ele>804.000000</ele>
  <time>2016-07-09T22:45:53Z</time>
</trkpt>
<trkpt lat="40.247383000" lon="-6.606404000">
  <ele>812.000000</ele>
  <time>2016-07-09T22:46:33Z</time>
</trkpt>
<trkpt lat="40.248059000" lon="-6.606592000">
  <ele>815.000000</ele>
  <time>2016-07-09T22:47:13Z</time>
</trkpt>
<trkpt lat="40.249149000" lon="-6.606540000">
  <ele>810.000000</ele>
  <time>2016-07-09T22:47:53Z</time>
</trkpt>
<trkpt lat="40.252494000" lon="-6.605445000">
  <ele>839.000000</ele>
  <time>2016-07-09T22:48:33Z</time>
</trkpt>
<trkpt lat="40.252636000" lon="-6.606281000">
  <ele>830.000000</ele>
  <time>2016-07-09T22:49:13Z</time>
</trkpt>
<trkpt lat="40.252554000" lon="-6.606869000">
  <ele>821.000000</ele>
  <time>2016-07-09T22:49:53Z</time>
</trkpt>
<trkpt lat="40.252936000" lon="-6.607053000">
  <ele>840.000000</ele>
  <time>2016-07-09T22:50:33Z</time>
</trkpt>
<trkpt lat="40.253609000" lon="-6.607097000">
  <ele>852.000000</ele>
  <time>2016-07-09T22:51:13Z</time>
</trkpt>
<trkpt lat="40.253917000" lon="-6.607515000">
  <ele>857.000000</ele>
  <time>2016-07-09T22:51:53Z</time>
</trkpt>
<trkpt lat="40.254378000" lon="-6.607199000">
  <ele>870.000000</ele>
  <time>2016-07-09T22:52:33Z</time>
</trkpt>
<trkpt lat="40.254520000" lon="-6.607263000">
  <ele>870.000000</ele>
  <time>2016-07-09T22:53:13Z</time>
</trkpt>
<trkpt lat="40.255256000" lon="-6.606608000">
  <ele>885.000000</ele>
  <time>2016-07-09T22:53:53Z</time>
</trkpt>
<trkpt lat="40.255468000" lon="-6.606659000">
  <ele>889.000000</ele>
  <time>2016-07-09T22:54:33Z</time>
</trkpt>
<trkpt lat="40.255030000" lon="-6.607632000">
  <ele>883.000000</ele>
  <time>2016-07-09T22:55:13Z</time>
</trkpt>
<trkpt lat="40.255141000" lon="-6.607754000">
  <ele>893.000000</ele>
  <time>2016-07-09T22:55:53Z</time>
</trkpt>
<trkpt lat="40.255707000" lon="-6.607493000">
  <ele>903.000000</ele>
  <time>2016-07-09T22:56:33Z</time>
</trkpt>
<trkpt lat="40.255410000" lon="-6.608329000">
  <ele>895.000000</ele>
  <time>2016-07-09T22:57:13Z</time>
</trkpt>
<trkpt lat="40.255657000" lon="-6.608696000">
  <ele>904.000000</ele>
  <time>2016-07-09T22:57:53Z</time>
</trkpt>
<trkpt lat="40.256551000" lon="-6.607898000">
  <ele>924.000000</ele>
  <time>2016-07-09T22:58:33Z</time>
</trkpt>
<trkpt lat="40.256378000" lon="-6.608809000">
  <ele>927.000000</ele>
  <time>2016-07-09T22:59:13Z</time>
</trkpt>
<trkpt lat="40.256456000" lon="-6.608965000">
  <ele>927.000000</ele>
  <time>2016-07-09T22:59:53Z</time>
</trkpt>
<trkpt lat="40.257324000" lon="-6.608429000">
  <ele>941.000000</ele>
  <time>2016-07-09T23:00:33Z</time>
</trkpt>
<trkpt lat="40.257813000" lon="-6.608900000">
  <ele>952.000000</ele>
  <time>2016-07-09T23:01:13Z</time>
</trkpt>
<trkpt lat="40.258213000" lon="-6.608950000">
  <ele>960.000000</ele>
  <time>2016-07-09T23:01:53Z</time>
</trkpt>
<trkpt lat="40.258247000" lon="-6.609782000">
  <ele>962.000000</ele>
  <time>2016-07-09T23:02:33Z</time>
</trkpt>
<trkpt lat="40.259007000" lon="-6.609262000">
  <ele>975.000000</ele>
  <time>2016-07-09T23:03:13Z</time>
</trkpt>
<trkpt lat="40.259369000" lon="-6.609262000">
  <ele>991.000000</ele>
  <time>2016-07-09T23:03:53Z</time>
</trkpt>
<trkpt lat="40.259391000" lon="-6.609793000">
  <ele>992.000000</ele>
  <time>2016-07-09T23:04:33Z</time>
</trkpt>
<trkpt lat="40.259705000" lon="-6.609790000">
  <ele>999.000000</ele>
  <time>2016-07-09T23:05:13Z</time>
</trkpt>
<trkpt lat="40.259900000" lon="-6.610264000">
  <ele>1004.000000</ele>
  <time>2016-07-09T23:05:53Z</time>
</trkpt>
<trkpt lat="40.259838000" lon="-6.612061000">
  <ele>1009.000000</ele>
  <time>2016-07-09T23:06:33Z</time>
</trkpt>
<trkpt lat="40.259985000" lon="-6.612730000">
  <ele>1009.000000</ele>
  <time>2016-07-09T23:07:13Z</time>
</trkpt>
<trkpt lat="40.261679000" lon="-6.614215000">
  <ele>1037.000000</ele>
  <time>2016-07-09T23:07:53Z</time>
</trkpt>
<trkpt lat="40.262890000" lon="-6.614653000">
  <ele>1056.000000</ele>
  <time>2016-07-09T23:08:33Z</time>
</trkpt>
<trkpt lat="40.263050000" lon="-6.615449000">
  <ele>1057.000000</ele>
  <time>2016-07-09T23:09:13Z</time>
</trkpt>
<trkpt lat="40.263590000" lon="-6.616833000">
  <ele>1071.000000</ele>
  <time>2016-07-09T23:09:53Z</time>
</trkpt>
<trkpt lat="40.264113000" lon="-6.617574000">
  <ele>1089.000000</ele>
  <time>2016-07-09T23:10:33Z</time>
</trkpt>
<trkpt lat="40.264937000" lon="-6.619313000">
  <ele>1112.000000</ele>
  <time>2016-07-09T23:11:13Z</time>
</trkpt>
<trkpt lat="40.265677000" lon="-6.620407000">
  <ele>1122.000000</ele>
  <time>2016-07-09T23:11:53Z</time>
</trkpt>
<trkpt lat="40.266550000" lon="-6.620597000">
  <ele>1142.000000</ele>
  <time>2016-07-09T23:12:33Z</time>
</trkpt>
<trkpt lat="40.266811000" lon="-6.620800000">
  <ele>1147.000000</ele>
  <time>2016-07-09T23:13:13Z</time>
</trkpt>
<trkpt lat="40.266949000" lon="-6.621449000">
  <ele>1148.000000</ele>
  <time>2016-07-09T23:13:53Z</time>
</trkpt>
<trkpt lat="40.267352000" lon="-6.621928000">
  <ele>1153.000000</ele>
  <time>2016-07-09T23:14:33Z</time>
</trkpt>
<trkpt lat="40.266955000" lon="-6.621464000">
  <ele>1148.000000</ele>
  <time>2016-07-09T23:15:13Z</time>
</trkpt>
<trkpt lat="40.266860000" lon="-6.620846000">
  <ele>1147.000000</ele>
  <time>2016-07-09T23:15:53Z</time>
</trkpt>
<trkpt lat="40.266539000" lon="-6.620591000">
  <ele>1142.000000</ele>
  <time>2016-07-09T23:16:33Z</time>
</trkpt>
<trkpt lat="40.265666000" lon="-6.620395000">
  <ele>1122.000000</ele>
  <time>2016-07-09T23:17:13Z</time>
</trkpt>
<trkpt lat="40.264935000" lon="-6.619300000">
  <ele>1113.000000</ele>
  <time>2016-07-09T23:17:53Z</time>
</trkpt>
<trkpt lat="40.264123000" lon="-6.617587000">
  <ele>1089.000000</ele>
  <time>2016-07-09T23:18:33Z</time>
</trkpt>
<trkpt lat="40.263593000" lon="-6.616837000">
  <ele>1071.000000</ele>
  <time>2016-07-09T23:19:13Z</time>
</trkpt>
<trkpt lat="40.262893000" lon="-6.614657000">
  <ele>1056.000000</ele>
  <time>2016-07-09T23:19:53Z</time>
</trkpt>
<trkpt lat="40.261677000" lon="-6.614200000">
  <ele>1037.000000</ele>
  <time>2016-07-09T23:20:33Z</time>
</trkpt>
<trkpt lat="40.259977000" lon="-6.612728000">
  <ele>1009.000000</ele>
  <time>2016-07-09T23:21:13Z</time>
</trkpt>
<trkpt lat="40.259838000" lon="-6.612050000">
  <ele>1009.000000</ele>
  <time>2016-07-09T23:21:53Z</time>
</trkpt>
<trkpt lat="40.259903000" lon="-6.610257000">
  <ele>1004.000000</ele>
  <time>2016-07-09T23:22:33Z</time>
</trkpt>
<trkpt lat="40.259703000" lon="-6.609788000">
  <ele>999.000000</ele>
  <time>2016-07-09T23:23:13Z</time>
</trkpt>
<trkpt lat="40.259394000" lon="-6.609797000">
  <ele>992.000000</ele>
  <time>2016-07-09T23:23:53Z</time>
</trkpt>
<trkpt lat="40.259373000" lon="-6.609258000">
  <ele>991.000000</ele>
  <time>2016-07-09T23:24:33Z</time>
</trkpt>
<trkpt lat="40.259009000" lon="-6.609262000">
  <ele>975.000000</ele>
  <time>2016-07-09T23:25:13Z</time>
</trkpt>
<trkpt lat="40.258259000" lon="-6.609780000">
  <ele>962.000000</ele>
  <time>2016-07-09T23:25:53Z</time>
</trkpt>
<trkpt lat="40.258220000" lon="-6.608956000">
  <ele>960.000000</ele>
  <time>2016-07-09T23:26:33Z</time>
</trkpt>
<trkpt lat="40.257816000" lon="-6.608899000">
  <ele>952.000000</ele>
  <time>2016-07-09T23:27:13Z</time>
</trkpt>
<trkpt lat="40.257348000" lon="-6.608434000">
  <ele>941.000000</ele>
  <time>2016-07-09T23:27:53Z</time>
</trkpt>
<trkpt lat="40.256449000" lon="-6.608962000">
  <ele>927.000000</ele>
  <time>2016-07-09T23:28:33Z</time>
</trkpt>
<trkpt lat="40.256548000" lon="-6.607900000">
  <ele>924.000000</ele>
  <time>2016-07-09T23:29:13Z</time>
</trkpt>
<trkpt lat="40.255654000" lon="-6.608690000">
  <ele>904.000000</ele>
  <time>2016-07-09T23:29:53Z</time>
</trkpt>
<trkpt lat="40.255406000" lon="-6.608378000">
  <ele>895.000000</ele>
  <time>2016-07-09T23:30:33Z</time>
</trkpt>
<trkpt lat="40.255704000" lon="-6.607491000">
  <ele>903.000000</ele>
  <time>2016-07-09T23:31:13Z</time>
</trkpt>
<trkpt lat="40.255139000" lon="-6.607756000">
  <ele>893.000000</ele>
  <time>2016-07-09T23:31:53Z</time>
</trkpt>
<trkpt lat="40.255037000" lon="-6.607647000">
  <ele>885.000000</ele>
  <time>2016-07-09T23:32:33Z</time>
</trkpt>
<trkpt lat="40.255443000" lon="-6.606631000">
  <ele>889.000000</ele>
  <time>2016-07-09T23:33:13Z</time>
</trkpt>
<trkpt lat="40.255248000" lon="-6.606614000">
  <ele>885.000000</ele>
  <time>2016-07-09T23:33:53Z</time>
</trkpt>
<trkpt lat="40.254523000" lon="-6.607255000">
  <ele>870.000000</ele>
  <time>2016-07-09T23:34:33Z</time>
</trkpt>
<trkpt lat="40.254373000" lon="-6.607194000">
  <ele>870.000000</ele>
  <time>2016-07-09T23:35:13Z</time>
</trkpt>
<trkpt lat="40.253920000" lon="-6.607515000">
  <ele>857.000000</ele>
  <time>2016-07-09T23:35:53Z</time>
</trkpt>
<trkpt lat="40.253606000" lon="-6.607089000">
  <ele>852.000000</ele>
  <time>2016-07-09T23:36:33Z</time>
</trkpt>
<trkpt lat="40.252952000" lon="-6.607062000">
  <ele>840.000000</ele>
  <time>2016-07-09T23:37:13Z</time>
</trkpt>
<trkpt lat="40.252560000" lon="-6.606872000">
  <ele>821.000000</ele>
  <time>2016-07-09T23:37:53Z</time>
</trkpt>
<trkpt lat="40.252636000" lon="-6.606267000">
  <ele>830.000000</ele>
  <time>2016-07-09T23:38:33Z</time>
</trkpt>
<trkpt lat="40.252454000" lon="-6.605464000">
  <ele>839.000000</ele>
  <time>2016-07-09T23:39:13Z</time>
</trkpt>
<trkpt lat="40.249354000" lon="-6.606485000">
  <ele>818.000000</ele>
  <time>2016-07-09T23:39:53Z</time>
</trkpt>
<trkpt lat="40.248043000" lon="-6.606587000">
  <ele>815.000000</ele>
  <time>2016-07-09T23:40:33Z</time>
</trkpt>
<trkpt lat="40.247254000" lon="-6.606339000">
  <ele>806.000000</ele>
  <time>2016-07-09T23:41:13Z</time>
</trkpt>
<trkpt lat="40.246315000" lon="-6.605810000">
  <ele>804.000000</ele>
  <time>2016-07-09T23:41:53Z</time>
</trkpt>
<trkpt lat="40.245880000" lon="-6.606008000">
  <ele>792.000000</ele>
  <time>2016-07-09T23:42:33Z</time>
</trkpt>
<trkpt lat="40.245063000" lon="-6.605890000">
  <ele>788.000000</ele>
  <time>2016-07-09T23:43:13Z</time>
</trkpt>
<trkpt lat="40.244840000" lon="-6.605583000">
  <ele>784.000000</ele>
  <time>2016-07-09T23:43:53Z</time>
</trkpt>
<trkpt lat="40.244603000" lon="-6.604350000">
  <ele>801.000000</ele>
  <time>2016-07-09T23:44:33Z</time>
</trkpt>
<trkpt lat="40.242724000" lon="-6.604978000">
  <ele>759.000000</ele>
  <time>2016-07-09T23:45:13Z</time>
</trkpt>
<trkpt lat="40.242308000" lon="-6.605018000">
  <ele>754.000000</ele>
  <time>2016-07-09T23:45:53Z</time>
</trkpt>
<trkpt lat="40.241703000" lon="-6.604853000">
  <ele>747.000000</ele>
  <time>2016-07-09T23:46:33Z</time>
</trkpt>
<trkpt lat="40.241437000" lon="-6.604640000">
  <ele>739.000000</ele>
  <time>2016-07-09T23:47:13Z</time>
</trkpt>
<trkpt lat="40.240598000" lon="-6.603143000">
  <ele>718.000000</ele>
  <time>2016-07-09T23:47:53Z</time>
</trkpt>
<trkpt lat="40.240550000" lon="-6.602591000">
  <ele>717.000000</ele>
  <time>2016-07-09T23:48:33Z</time>
</trkpt>
<trkpt lat="40.240901000" lon="-6.602081000">
  <ele>723.000000</ele>
  <time>2016-07-09T23:49:13Z</time>
</trkpt>
<trkpt lat="40.240029000" lon="-6.600140000">
  <ele>695.000000</ele>
  <time>2016-07-09T23:49:53Z</time>
</trkpt>
<trkpt lat="40.239853000" lon="-6.599112000">
  <ele>685.000000</ele>
  <time>2016-07-09T23:50:33Z</time>
</trkpt>
</trkseg>
</trk>
</gpx>
